Terminal Aerodrome Forecast
Issued by NWS

Home | Current Version | Previous Version | Text Only | Print | Product List | Glossary On
Versions: 1 2 3 4 5 6 7 8 9 10 11 12 13 14 15
676
FTUS42 KILM 212330
TAFCRE
TAF
KCRE 212330Z 2200/2224 VRB03KT P6SM BKN250
     FM221100 VRB03KT 4SM BR SCT250
     FM221300 07006KT P6SM SCT250
     FM221800 13008KT P6SM SCT045=

USA.gov is the U.S. government's official web portal to all federal, state and local government web resources and services.